Time;durP1;ratioP1;P1;durP2;ratioP2;P2;SDS_P1;SDS_P2;PMS_P1;PMS_P2;Temp;Humidity;BMP_temperature;BMP_pressure;BME280_temperature;BME280_humidity;BME280_pressure;Samples;Min_cycle;Max_cycle;Signal;HPM_P1;HPM_P2
2024/01/30 00:02:25;;;;;;;0.60;0.60;;;7.70;57.90;;;;;;5111593;28;20111;-68
2024/01/30 00:04:50;;;;;;;0.60;0.60;;;7.70;58.00;;;;;;5109043;28;20505;-68
2024/01/30 00:07:16;;;;;;;0.63;0.63;;;7.70;57.80;;;;;;5091646;28;20036;-68
2024/01/30 00:09:42;;;;;;;0.60;0.60;;;7.70;57.90;;;;;;5091487;28;20028;-68
2024/01/30 00:12:07;;;;;;;0.60;0.60;;;7.70;58.00;;;;;;5091926;28;20034;-68
2024/01/30 00:14:33;;;;;;;0.98;0.98;;;7.70;58.00;;;;;;5091450;28;20032;-68
2024/01/30 00:16:58;;;;;;;1.10;1.10;;;7.70;58.20;;;;;;5091665;28;20097;-68
2024/01/30 00:19:24;;;;;;;0.70;0.70;;;7.70;58.20;;;;;;5091209;28;20491;-68
2024/01/30 00:21:49;;;;;;;2.28;1.50;;;7.70;58.30;;;;;;5091740;28;20047;-68
2024/01/30 00:24:15;;;;;;;0.90;0.90;;;7.70;58.30;;;;;;5091184;28;20102;-68
2024/01/30 00:26:40;;;;;;;0.75;0.75;;;7.70;58.20;;;;;;5091774;28;20114;-68
2024/01/30 00:29:06;;;;;;;1.02;1.02;;;7.70;58.20;;;;;;5091014;28;20032;-68
2024/01/30 00:31:31;;;;;;;0.90;0.90;;;7.70;58.10;;;;;;5091319;28;20115;-68
2024/01/30 00:33:57;;;;;;;0.60;0.60;;;7.70;58.10;;;;;;5091058;28;20065;-68
2024/01/30 00:36:22;;;;;;;0.60;0.60;;;7.70;58.10;;;;;;5091825;28;20032;-68
2024/01/30 00:38:48;;;;;;;0.60;0.60;;;7.70;58.10;;;;;;5094640;28;20058;-68
2024/01/30 00:41:14;;;;;;;3.92;1.10;;;7.70;58.10;;;;;;5094911;28;20472;-68
2024/01/30 00:43:39;;;;;;;0.60;0.60;;;7.70;58.20;;;;;;5094656;28;20035;-68
2024/01/30 00:46:05;;;;;;;0.70;0.70;;;7.70;58.20;;;;;;5094721;28;20044;-68
2024/01/30 00:48:30;;;;;;;0.50;0.50;;;7.70;58.40;;;;;;5094796;28;20077;-68
2024/01/30 00:50:56;;;;;;;0.93;0.93;;;7.70;58.50;;;;;;5094714;28;20491;-68
2024/01/30 00:53:22;;;;;;;0.70;0.70;;;7.70;58.70;;;;;;5094349;28;20036;-68
2024/01/30 00:55:47;;;;;;;1.40;1.30;;;7.80;58.80;;;;;;5094569;28;20043;-68
2024/01/30 00:58:12;;;;;;;0.85;0.85;;;7.80;58.80;;;;;;5094413;28;20052;-68
2024/01/30 01:00:38;;;;;;;0.60;0.60;;;7.80;59.00;;;;;;5094558;28;20028;-68
2024/01/30 01:03:04;;;;;;;0.77;0.77;;;7.80;59.00;;;;;;5094128;28;20391;-68
2024/01/30 01:05:30;;;;;;;0.65;0.65;;;7.80;59.10;;;;;;5094202;28;20491;-68
2024/01/30 01:07:55;;;;;;;1.27;1.17;;;7.80;59.10;;;;;;5094307;28;20024;-68
2024/01/30 01:10:21;;;;;;;0.77;0.77;;;7.90;59.10;;;;;;5094068;28;20044;-68
2024/01/30 01:12:48;;;;;;;1.00;1.00;;;7.90;59.00;;;;;;5094201;28;20123;-68
2024/01/30 01:15:13;;;;;;;0.47;0.47;;;7.90;59.10;;;;;;5093976;28;20108;-68
2024/01/30 01:17:40;;;;;;;0.60;0.60;;;7.90;59.00;;;;;;5093983;28;20072;-68
2024/01/30 01:20:06;;;;;;;0.50;0.50;;;7.90;59.00;;;;;;5093699;28;20024;-68
2024/01/30 01:22:32;;;;;;;0.50;0.50;;;7.90;58.90;;;;;;5094276;28;20112;-68
2024/01/30 01:24:58;;;;;;;0.70;0.70;;;7.80;58.80;;;;;;5093709;28;20433;-68
2024/01/30 01:27:24;;;;;;;0.60;0.60;;;7.80;58.70;;;;;;5093874;28;20040;-68
2024/01/30 01:29:50;;;;;;;0.60;0.60;;;7.70;58.70;;;;;;5093972;28;20072;-68
2024/01/30 01:32:16;;;;;;;0.90;0.90;;;7.70;58.70;;;;;;5094007;28;20519;-68
2024/01/30 01:34:41;;;;;;;0.90;0.90;;;7.70;58.70;;;;;;5093810;28;20028;-68
2024/01/30 01:37:07;;;;;;;1.08;1.08;;;7.60;58.80;;;;;;5094022;28;20032;-68
2024/01/30 01:39:32;;;;;;;0.70;0.70;;;7.60;58.80;;;;;;5093501;28;20016;-68
2024/01/30 01:41:58;;;;;;;0.60;0.60;;;7.50;59.00;;;;;;5093677;28;20035;-68
2024/01/30 01:44:23;;;;;;;0.65;0.65;;;7.50;59.20;;;;;;5093601;28;20035;-68
2024/01/30 01:46:49;;;;;;;0.98;0.98;;;7.50;59.20;;;;;;5093795;28;20043;-68
2024/01/30 01:49:15;;;;;;;0.80;0.80;;;7.50;59.40;;;;;;5092266;28;20387;-68
2024/01/30 01:51:42;;;;;;;1.10;1.02;;;7.50;59.60;;;;;;5093732;28;20085;-68
2024/01/30 01:54:08;;;;;;;1.00;1.00;;;7.50;59.80;;;;;;5093172;28;20490;-68
2024/01/30 01:56:34;;;;;;;0.60;0.60;;;7.50;59.80;;;;;;5093584;28;20039;-68
2024/01/30 01:59:04;;;;;;;4.03;1.23;;;7.50;59.70;;;;;;5093166;28;20383;-68
2024/01/30 02:01:32;;;;;;;0.70;0.70;;;7.50;60.00;;;;;;5093643;28;20051;-68
2024/01/30 02:03:58;;;;;;;0.93;0.93;;;7.50;59.80;;;;;;5093204;28;20036;-68
2024/01/30 02:06:24;;;;;;;1.35;1.30;;;7.50;59.80;;;;;;5093570;28;20036;-68
2024/01/30 02:08:49;;;;;;;1.10;1.00;;;7.50;59.80;;;;;;5093009;28;20055;-68
2024/01/30 02:11:16;;;;;;;0.80;0.80;;;7.50;59.70;;;;;;5092771;28;20051;-68
2024/01/30 02:13:42;;;;;;;0.77;0.77;;;7.50;59.50;;;;;;5092700;28;20024;-68
2024/01/30 02:16:08;;;;;;;13.85;1.60;;;7.40;59.40;;;;;;5092954;28;20040;-68
2024/01/30 02:18:33;;;;;;;0.77;0.77;;;7.40;59.20;;;;;;5092888;28;20024;-68
2024/01/30 02:21:01;;;;;;;0.60;0.60;;;7.30;59.10;;;;;;5093124;28;20227;-68
2024/01/30 02:23:27;;;;;;;1.38;1.27;;;7.30;59.00;;;;;;5093033;28;20034;-68
2024/01/30 02:25:53;;;;;;;2.05;1.60;;;7.20;59.00;;;;;;5092850;28;20043;-68
2024/01/30 02:28:20;;;;;;;0.88;0.88;;;7.20;58.90;;;;;;5092514;28;20073;-68
2024/01/30 02:30:46;;;;;;;1.73;1.63;;;7.10;58.90;;;;;;5092748;28;20032;-68
2024/01/30 02:33:12;;;;;;;0.50;0.50;;;7.10;58.90;;;;;;5092378;28;20020;-68
2024/01/30 02:35:37;;;;;;;1.02;1.02;;;7.00;58.90;;;;;;5092750;28;20044;-68
2024/01/30 02:38:03;;;;;;;0.50;0.50;;;6.90;59.00;;;;;;5092653;28;20096;-68
2024/01/30 02:40:29;;;;;;;1.00;1.00;;;6.90;59.10;;;;;;5092564;28;20028;-68
2024/01/30 02:42:54;;;;;;;0.80;0.80;;;6.90;59.00;;;;;;5092407;28;20028;-68
2024/01/30 02:45:20;;;;;;;0.55;0.55;;;6.80;59.20;;;;;;5092313;28;20032;-68
2024/01/30 02:47:45;;;;;;;0.73;0.73;;;6.80;59.40;;;;;;5092412;28;20047;-68
2024/01/30 02:50:11;;;;;;;0.68;0.68;;;6.80;59.50;;;;;;5092054;28;20028;-68
2024/01/30 02:52:36;;;;;;;5.25;1.23;;;6.80;59.70;;;;;;5092345;28;20448;-68
2024/01/30 02:55:02;;;;;;;0.75;0.75;;;6.80;59.80;;;;;;5092204;28;20031;-68
2024/01/30 02:57:29;;;;;;;0.75;0.75;;;6.80;59.80;;;;;;5092132;28;20023;-68
2024/01/30 02:59:54;;;;;;;0.88;0.88;;;6.80;59.80;;;;;;5073967;28;20045;-68
2024/01/30 03:02:20;;;;;;;3.22;1.83;;;6.80;59.80;;;;;;5092327;28;20036;-68
2024/01/30 03:04:45;;;;;;;0.68;0.68;;;6.80;59.90;;;;;;5092027;28;20040;-68
2024/01/30 03:07:11;;;;;;;0.50;0.50;;;6.80;59.90;;;;;;5092202;28;20036;-68
2024/01/30 03:09:37;;;;;;;0.80;0.80;;;6.80;60.40;;;;;;5092300;28;20039;-68
2024/01/30 03:12:03;;;;;;;0.90;0.90;;;6.90;60.60;;;;;;5092199;28;20038;-68
2024/01/30 03:14:31;;;;;;;1.25;1.20;;;6.90;61.10;;;;;;5091911;28;20039;-68
2024/01/30 03:16:58;;;;;;;0.70;0.70;;;7.00;61.50;;;;;;5092232;28;20040;-68
2024/01/30 03:19:23;;;;;;;0.80;0.80;;;7.10;62.10;;;;;;5091765;28;20089;-68
2024/01/30 03:21:49;;;;;;;1.00;1.00;;;7.20;62.40;;;;;;5092290;28;20036;-67
2024/01/30 03:24:14;;;;;;;0.60;0.60;;;7.40;62.50;;;;;;5091779;28;20020;-67
2024/01/30 03:26:40;;;;;;;0.60;0.60;;;7.50;62.70;;;;;;5092483;28;20107;-66
2024/01/30 03:29:05;;;;;;;0.93;0.93;;;7.60;62.60;;;;;;5091778;28;20020;-67
2024/01/30 03:31:31;;;;;;;0.60;0.60;;;7.70;62.40;;;;;;5092038;28;20383;-68
2024/01/30 03:33:56;;;;;;;2.05;1.45;;;7.70;61.70;;;;;;5091488;28;20382;-68
2024/01/30 03:36:22;;;;;;;0.68;0.68;;;7.70;60.90;;;;;;5091691;28;20068;-68
2024/01/30 03:38:47;;;;;;;0.70;0.70;;;7.60;60.50;;;;;;5091531;28;20027;-68
2024/01/30 03:41:13;;;;;;;0.80;0.80;;;7.50;60.30;;;;;;5091831;28;20111;-68
2024/01/30 03:43:38;;;;;;;0.70;0.70;;;7.40;60.20;;;;;;5073390;28;20028;-68
2024/01/30 03:46:04;;;;;;;1.17;1.08;;;7.30;60.20;;;;;;5091589;28;20383;-68
2024/01/30 03:48:29;;;;;;;0.80;0.80;;;7.20;60.30;;;;;;5091454;28;20032;-68
2024/01/30 03:50:55;;;;;;;1.02;1.00;;;7.20;60.50;;;;;;5091389;28;20122;-68
2024/01/30 03:53:21;;;;;;;0.90;0.90;;;7.20;60.70;;;;;;5091218;28;20494;-68
2024/01/30 03:55:47;;;;;;;0.73;0.73;;;7.10;61.00;;;;;;5091781;28;20036;-68
2024/01/30 03:58:12;;;;;;;1.92;1.80;;;7.20;61.20;;;;;;5091311;28;20024;-68
2024/01/30 04:00:38;;;;;;;0.60;0.60;;;7.20;61.30;;;;;;5091545;28;20467;-68
2024/01/30 04:03:03;;;;;;;0.73;0.73;;;7.20;61.20;;;;;;5091305;28;20107;-68
2024/01/30 04:05:29;;;;;;;1.33;1.23;;;7.20;61.00;;;;;;5091258;28;20044;-68
2024/01/30 04:07:54;;;;;;;1.42;1.33;;;7.20;60.80;;;;;;5091263;28;20418;-68
2024/01/30 04:10:20;;;;;;;0.90;0.90;;;7.20;60.70;;;;;;5091494;28;20032;-68
2024/01/30 04:12:45;;;;;;;0.60;0.60;;;7.20;60.60;;;;;;5094334;28;20024;-68
2024/01/30 04:15:11;;;;;;;0.60;0.60;;;7.10;60.50;;;;;;5095066;28;20440;-68
2024/01/30 04:17:37;;;;;;;0.80;0.80;;;7.10;60.50;;;;;;5095348;28;20020;-68
2024/01/30 04:20:03;;;;;;;0.85;0.85;;;7.00;60.40;;;;;;5095014;28;20092;-68
2024/01/30 04:22:28;;;;;;;0.57;0.57;;;7.00;60.40;;;;;;5094936;28;20364;-68
2024/01/30 04:24:54;;;;;;;0.60;0.60;;;6.90;60.40;;;;;;5095393;28;20035;-68
2024/01/30 04:27:19;;;;;;;0.60;0.60;;;6.90;60.40;;;;;;5094556;28;20115;-68
2024/01/30 04:29:45;;;;;;;0.55;0.55;;;6.90;60.50;;;;;;5094945;28;20099;-68
2024/01/30 04:32:10;;;;;;;1.27;1.17;;;6.90;60.60;;;;;;5095191;28;20040;-68
2024/01/30 04:34:38;;;;;;;1.23;1.15;;;6.90;60.70;;;;;;5094931;28;20388;-68
2024/01/30 04:37:04;;;;;;;0.70;0.70;;;6.90;60.70;;;;;;5095049;28;20024;-68
2024/01/30 04:39:29;;;;;;;1.15;1.08;;;6.90;61.00;;;;;;5076702;28;20016;-68
2024/01/30 04:41:55;;;;;;;1.48;1.38;;;6.90;61.10;;;;;;5095064;28;20464;-67
2024/01/30 04:44:20;;;;;;;0.60;0.60;;;6.90;61.10;;;;;;5076519;28;20020;-67
2024/01/30 04:46:46;;;;;;;0.65;0.65;;;6.90;61.00;;;;;;5095049;28;20372;-67
2024/01/30 04:49:11;;;;;;;0.70;0.70;;;6.90;61.10;;;;;;5094514;28;20016;-67
2024/01/30 04:51:37;;;;;;;1.20;1.17;;;7.00;61.10;;;;;;5094958;28;20031;-67
2024/01/30 04:54:03;;;;;;;0.60;0.60;;;6.90;61.00;;;;;;5094710;28;20041;-66
2024/01/30 04:56:28;;;;;;;0.60;0.60;;;6.90;60.90;;;;;;5094699;28;20494;-66
2024/01/30 04:58:54;;;;;;;0.70;0.70;;;6.90;60.80;;;;;;5094493;28;20415;-66
2024/01/30 05:01:19;;;;;;;0.70;0.70;;;6.90;60.80;;;;;;5094583;28;20486;-66
2024/01/30 05:03:45;;;;;;;0.80;0.80;;;6.90;60.80;;;;;;5094367;28;20024;-67
2024/01/30 05:06:10;;;;;;;0.52;0.52;;;6.90;60.80;;;;;;5094544;28;20044;-67
2024/01/30 05:08:39;;;;;;;0.73;0.73;;;6.90;60.80;;;;;;5076398;28;20154;-67
2024/01/30 05:11:05;;;;;;;0.63;0.63;;;6.80;60.80;;;;;;5094537;28;20036;-66
2024/01/30 05:13:31;;;;;;;0.60;0.60;;;6.80;60.90;;;;;;5094219;28;20032;-66
2024/01/30 05:15:57;;;;;;;0.63;0.63;;;6.80;60.90;;;;;;5094361;28;20501;-66
2024/01/30 05:18:23;;;;;;;1.25;1.25;;;6.80;60.90;;;;;;5076000;28;20020;-66
2024/01/30 05:20:49;;;;;;;0.80;0.80;;;6.80;60.90;;;;;;5094316;28;20038;-66
2024/01/30 05:23:15;;;;;;;1.00;1.00;;;6.80;61.00;;;;;;5092825;28;20547;-67
2024/01/30 05:25:40;;;;;;;0.50;0.50;;;6.80;61.00;;;;;;5094415;28;20063;-68
2024/01/30 05:28:06;;;;;;;1.13;1.02;;;6.70;61.00;;;;;;5094161;28;20024;-67
2024/01/30 05:30:32;;;;;;;0.70;0.70;;;6.80;60.90;;;;;;5093932;28;20068;-67
2024/01/30 05:32:57;;;;;;;3.15;2.42;;;6.80;60.90;;;;;;5093926;28;20027;-68
2024/01/30 05:35:23;;;;;;;1.30;1.25;;;6.70;61.10;;;;;;5093672;28;20502;-67
2024/01/30 05:37:49;;;;;;;0.60;0.60;;;6.70;61.20;;;;;;5093708;28;20104;-67
2024/01/30 05:40:15;;;;;;;0.60;0.60;;;6.70;61.40;;;;;;5093654;28;20105;-67
2024/01/30 05:42:41;;;;;;;1.25;1.20;;;6.80;61.60;;;;;;5093871;28;20028;-67
2024/01/30 05:45:07;;;;;;;0.70;0.70;;;6.80;62.00;;;;;;5093516;28;20024;-67
2024/01/30 05:47:33;;;;;;;1.02;0.98;;;6.90;62.20;;;;;;5093707;28;20021;-67
2024/01/30 05:49:58;;;;;;;1.48;1.38;;;7.00;62.30;;;;;;5093626;28;20122;-67
2024/01/30 05:52:24;;;;;;;0.77;0.77;;;7.00;62.20;;;;;;5093518;28;20031;-67
2024/01/30 05:54:49;;;;;;;1.17;1.17;;;7.00;62.00;;;;;;5093533;28;20020;-67
2024/01/30 05:57:15;;;;;;;1.88;1.70;;;7.10;61.90;;;;;;5094067;28;20503;-67
2024/01/30 05:59:40;;;;;;;0.68;0.68;;;7.10;61.90;;;;;;5093493;28;20024;-67
2024/01/30 06:02:06;;;;;;;0.50;0.50;;;7.00;61.70;;;;;;5093793;28;20493;-67
2024/01/30 06:04:31;;;;;;;1.67;1.45;;;7.00;61.50;;;;;;5093191;28;20036;-66
2024/01/30 06:06:57;;;;;;;0.70;0.70;;;7.00;61.40;;;;;;5093520;28;20422;-67
2024/01/30 06:09:22;;;;;;;1.35;1.25;;;6.90;61.30;;;;;;5093068;28;20464;-67
2024/01/30 06:11:48;;;;;;;0.70;0.70;;;6.90;61.40;;;;;;5075226;28;20227;-67
2024/01/30 06:14:13;;;;;;;1.80;1.70;;;6.80;61.50;;;;;;5093012;28;20054;-66
2024/01/30 06:16:39;;;;;;;1.33;1.23;;;6.80;61.80;;;;;;5093393;28;20471;-67
2024/01/30 06:19:05;;;;;;;0.60;0.60;;;6.80;62.10;;;;;;5092817;28;20028;-67
2024/01/30 06:21:32;;;;;;;0.60;0.60;;;6.90;62.30;;;;;;5093200;28;20039;-67
2024/01/30 06:23:57;;;;;;;1.98;1.88;;;6.90;62.30;;;;;;5092856;28;20024;-67
2024/01/30 06:26:23;;;;;;;0.80;0.80;;;6.90;62.30;;;;;;5093034;28;20043;-67
2024/01/30 06:28:48;;;;;;;1.77;1.67;;;7.00;62.10;;;;;;5093112;28;20056;-67
2024/01/30 06:31:14;;;;;;;0.60;0.60;;;7.00;62.00;;;;;;5093035;28;20066;-66
2024/01/30 06:33:42;;;;;;;0.70;0.70;;;7.00;61.80;;;;;;5092443;28;20028;-67
2024/01/30 06:36:07;;;;;;;5.72;1.35;;;7.00;61.70;;;;;;5092597;28;20032;-67
2024/01/30 06:38:33;;;;;;;1.45;1.35;;;6.90;61.50;;;;;;5092603;28;20099;-67
2024/01/30 06:40:58;;;;;;;1.02;1.02;;;6.80;61.50;;;;;;5092698;28;20089;-67
2024/01/30 06:43:24;;;;;;;4.13;2.25;;;6.80;61.60;;;;;;5092349;28;20376;-67
2024/01/30 06:45:50;;;;;;;0.85;0.85;;;6.80;61.70;;;;;;5092648;28;20399;-66
2024/01/30 06:48:15;;;;;;;0.57;0.57;;;6.80;61.80;;;;;;5092316;28;20032;-67
2024/01/30 06:50:41;;;;;;;0.93;0.93;;;6.80;61.70;;;;;;5092231;28;20036;-67
2024/01/30 06:53:06;;;;;;;0.60;0.60;;;6.80;61.80;;;;;;5092251;28;20078;-67
2024/01/30 06:55:32;;;;;;;0.75;0.75;;;6.80;61.80;;;;;;5092238;28;20375;-66
2024/01/30 06:57:57;;;;;;;0.60;0.60;;;6.80;61.90;;;;;;5092255;28;20032;-68
2024/01/30 07:00:23;;;;;;;0.90;0.90;;;6.90;62.00;;;;;;5092599;28;20446;-66
2024/01/30 07:02:48;;;;;;;0.60;0.60;;;6.90;62.10;;;;;;5092550;28;20391;-66
2024/01/30 07:05:15;;;;;;;0.65;0.65;;;6.90;62.10;;;;;;5073720;28;20040;-67
2024/01/30 07:07:40;;;;;;;0.60;0.60;;;7.00;62.20;;;;;;5092058;28;20024;-67
2024/01/30 07:10:06;;;;;;;0.70;0.70;;;7.00;62.30;;;;;;5092072;28;20040;-67
2024/01/30 07:12:32;;;;;;;0.60;0.60;;;7.10;62.30;;;;;;5092041;28;20063;-67
2024/01/30 07:14:59;;;;;;;0.80;0.80;;;7.20;62.40;;;;;;5092069;28;20074;-67
2024/01/30 07:17:25;;;;;;;0.52;0.52;;;7.20;62.50;;;;;;5092239;28;20114;-67
2024/01/30 07:19:50;;;;;;;0.60;0.60;;;7.20;62.70;;;;;;5091889;28;20103;-67
2024/01/30 07:22:16;;;;;;;1.33;1.00;;;7.20;62.60;;;;;;5092349;28;20487;-67
2024/01/30 07:24:45;;;;;;;1.45;1.35;;;7.30;62.60;;;;;;5091886;28;20398;-67
2024/01/30 07:27:10;;;;;;;0.50;0.50;;;7.40;62.60;;;;;;5091870;28;20075;-67
2024/01/30 07:29:36;;;;;;;0.60;0.60;;;7.40;62.70;;;;;;5091940;28;20036;-67
2024/01/30 07:32:02;;;;;;;1.10;1.10;;;7.50;62.70;;;;;;5074032;28;20039;-67
2024/01/30 07:34:27;;;;;;;0.93;0.90;;;7.60;62.70;;;;;;5091828;28;20074;-67
2024/01/30 07:36:53;;;;;;;1.63;1.27;;;7.70;62.70;;;;;;5092052;28;20321;-66
2024/01/30 07:39:18;;;;;;;0.65;0.65;;;7.70;62.70;;;;;;5091664;28;20178;-66
2024/01/30 07:41:44;;;;;;;1.92;1.70;;;7.80;62.70;;;;;;5091365;28;20097;-67
2024/01/30 07:44:09;;;;;;;0.98;0.98;;;7.80;62.80;;;;;;5081381;28;20039;-66
2024/01/30 07:46:35;;;;;;;0.95;0.95;;;7.80;62.90;;;;;;5073244;28;20062;-67
2024/01/30 07:49:01;;;;;;;1.30;1.23;;;8.00;63.00;;;;;;5061014;28;20062;-67
2024/01/30 07:51:29;;;;;;;0.80;0.80;;;8.00;63.20;;;;;;5085780;28;20064;-67
2024/01/30 07:53:54;;;;;;;0.93;0.90;;;8.10;63.30;;;;;;5075460;28;20025;-67
2024/01/30 07:56:20;;;;;;;0.70;0.70;;;8.20;63.50;;;;;;5095658;28;20050;-67
2024/01/30 07:58:45;;;;;;;1.13;1.13;;;8.30;63.60;;;;;;5076613;28;20024;-67
2024/01/30 08:01:11;;;;;;;0.68;0.68;;;8.50;63.80;;;;;;5076294;28;20036;-68
2024/01/30 08:03:39;;;;;;;2.35;2.15;;;8.60;63.80;;;;;;5060944;28;20037;-68
2024/01/30 08:06:06;;;;;;;2.05;1.95;;;8.70;63.80;;;;;;5074517;28;20025;-68
2024/01/30 08:08:32;;;;;;;1.38;1.30;;;8.80;63.70;;;;;;5082308;28;20157;-67
2024/01/30 08:10:57;;;;;;;0.60;0.60;;;8.90;63.70;;;;;;5084185;28;20442;-68
2024/01/30 08:13:23;;;;;;;0.60;0.60;;;9.00;63.60;;;;;;5088588;28;20036;-68
2024/01/30 08:15:48;;;;;;;1.75;1.65;;;9.10;63.50;;;;;;5090584;28;20382;-68
2024/01/30 08:18:14;;;;;;;1.48;1.38;;;9.20;63.50;;;;;;5076708;28;20032;-68
2024/01/30 08:20:39;;;;;;;0.88;0.88;;;9.30;63.50;;;;;;5094931;28;20036;-68
2024/01/30 08:23:05;;;;;;;0.93;0.93;;;9.40;63.50;;;;;;5095020;28;20036;-68
2024/01/30 08:25:30;;;;;;;0.93;0.93;;;9.50;63.40;;;;;;5084835;28;20032;-68
2024/01/30 08:27:57;;;;;;;0.68;0.68;;;9.60;63.30;;;;;;5090052;28;20426;-68
2024/01/30 08:30:22;;;;;;;0.90;0.85;;;9.70;63.30;;;;;;5094457;28;20476;-68
2024/01/30 08:32:48;;;;;;;1.17;1.08;;;9.80;63.30;;;;;;5077239;28;20060;-68
2024/01/30 08:35:15;;;;;;;1.13;0.95;;;9.90;63.30;;;;;;5074234;28;20024;-68
2024/01/30 08:37:41;;;;;;;0.68;0.68;;;10.10;63.40;;;;;;5073744;28;20016;-68
2024/01/30 08:40:08;;;;;;;0.50;0.50;;;10.20;63.50;;;;;;5074606;28;20024;-68
2024/01/30 08:42:33;;;;;;;0.93;0.93;;;10.40;63.50;;;;;;5073807;28;20028;-69
2024/01/30 08:44:59;;;;;;;0.70;0.70;;;10.50;63.40;;;;;;5077622;28;20054;-68
2024/01/30 08:47:25;;;;;;;0.85;0.85;;;10.70;63.40;;;;;;5074146;28;20024;-68
2024/01/30 08:49:51;;;;;;;0.95;0.95;;;10.80;63.30;;;;;;5073893;28;20028;-68
2024/01/30 08:52:17;;;;;;;0.60;0.60;;;10.90;63.30;;;;;;5073725;28;20043;-68
2024/01/30 08:54:43;;;;;;;1.88;1.67;;;11.10;63.20;;;;;;5074119;28;20391;-68
2024/01/30 08:57:08;;;;;;;1.02;0.90;;;11.20;62.80;;;;;;5073356;28;20029;-68
2024/01/30 08:59:34;;;;;;;1.00;1.00;;;11.30;62.80;;;;;;5073626;28;20394;-68
2024/01/30 09:01:59;;;;;;;0.45;0.45;;;11.30;62.70;;;;;;5074213;28;20033;-68
2024/01/30 09:04:25;;;;;;;0.68;0.68;;;11.50;62.90;;;;;;5082190;28;20036;-68
2024/01/30 09:06:50;;;;;;;0.73;0.73;;;11.70;62.90;;;;;;5094274;28;20028;-68
2024/01/30 09:09:17;;;;;;;0.57;0.57;;;11.80;62.80;;;;;;5091034;28;20093;-68
2024/01/30 09:11:43;;;;;;;2.75;1.10;;;12.00;62.80;;;;;;5089337;28;20073;-68
2024/01/30 09:14:09;;;;;;;0.75;0.75;;;12.10;62.80;;;;;;5088062;28;20032;-68
2024/01/30 09:16:34;;;;;;;0.50;0.50;;;12.30;62.70;;;;;;5093888;28;20419;-68
2024/01/30 09:19:00;;;;;;;0.50;0.50;;;12.40;62.60;;;;;;5084880;28;20365;-69
2024/01/30 09:21:25;;;;;;;0.60;0.60;;;12.60;62.50;;;;;;5073924;28;20037;-67
2024/01/30 09:23:54;;;;;;;0.55;0.55;;;12.80;62.70;;;;;;5073587;28;20408;-67
2024/01/30 09:26:20;;;;;;;0.75;0.75;;;13.00;62.90;;;;;;5076835;28;20472;-68
2024/01/30 09:28:45;;;;;;;0.75;0.75;;;13.30;63.10;;;;;;5073725;28;20037;-67
2024/01/30 09:31:12;;;;;;;1.02;0.98;;;13.60;63.40;;;;;;5073685;28;20048;-67
2024/01/30 09:33:38;;;;;;;0.90;0.90;;;13.90;63.30;;;;;;5076416;28;20016;-67
2024/01/30 09:36:03;;;;;;;0.85;0.82;;;14.20;62.70;;;;;;5081029;28;20082;-67
2024/01/30 09:38:29;;;;;;;0.80;0.80;;;14.40;62.20;;;;;;5092368;28;20046;-67
2024/01/30 09:40:58;;;;;;;0.70;0.70;;;14.60;61.80;;;;;;5075728;28;20024;-68
2024/01/30 09:43:24;;;;;;;1.65;1.05;;;14.80;61.80;;;;;;5087488;28;20460;-67
2024/01/30 09:45:54;;;;;;;0.65;0.65;;;15.10;61.70;;;;;;5093464;28;20059;-67
2024/01/30 09:48:19;;;;;;;0.70;0.70;;;15.30;61.00;;;;;;5093302;28;20036;-67
2024/01/30 09:50:46;;;;;;;0.55;0.55;;;15.40;60.70;;;;;;5089851;28;20510;-67
2024/01/30 09:53:12;;;;;;;0.63;0.63;;;15.70;60.20;;;;;;5093227;28;20464;-67
2024/01/30 09:55:42;;;;;;;0.52;0.52;;;15.80;59.70;;;;;;5087785;28;20024;-68
2024/01/30 09:58:08;;;;;;;0.60;0.60;;;15.90;59.00;;;;;;5073037;28;20024;-67
2024/01/30 10:00:33;;;;;;;0.43;0.43;;;16.10;58.70;;;;;;5072727;28;20047;-67
2024/01/30 10:02:59;;;;;;;1.55;0.98;;;16.20;57.80;;;;;;5072568;28;20468;-68
2024/01/30 10:05:28;;;;;;;0.73;0.73;;;16.20;57.30;;;;;;5072750;28;20044;-67
2024/01/30 10:07:55;;;;;;;0.70;0.70;;;16.30;56.10;;;;;;5079566;28;20095;-67
2024/01/30 10:10:25;;;;;;;0.85;0.85;;;16.40;55.40;;;;;;5092046;28;20036;-68
2024/01/30 10:12:51;;;;;;;0.90;0.90;;;16.40;55.20;;;;;;5090728;28;20024;-68
2024/01/30 10:15:18;;;;;;;0.60;0.60;;;16.40;54.50;;;;;;5092781;28;20538;-67
2024/01/30 10:17:45;;;;;;;0.57;0.57;;;16.50;54.20;;;;;;5087284;28;20475;-67
2024/01/30 10:20:11;;;;;;;0.70;0.70;;;16.50;54.30;;;;;;5090678;28;20021;-68
2024/01/30 10:22:36;;;;;;;0.95;0.95;;;16.50;53.70;;;;;;5077663;28;20032;-67
2024/01/30 10:25:02;;;;;;;0.57;0.57;;;16.60;53.30;;;;;;5072336;28;20024;-68
2024/01/30 10:27:29;;;;;;;0.43;0.43;;;16.70;53.40;;;;;;5083938;28;20039;-67
2024/01/30 10:29:55;;;;;;;0.90;0.90;;;16.80;53.80;;;;;;5092573;28;20024;-69
2024/01/30 10:32:21;;;;;;;0.70;0.70;;;17.00;53.40;;;;;;5090660;28;20036;-69
2024/01/30 10:34:46;;;;;;;0.60;0.60;;;17.20;53.00;;;;;;5089591;28;20446;-69
2024/01/30 10:37:15;;;;;;;0.50;0.50;;;17.40;52.60;;;;;;5092759;28;20036;-69
2024/01/30 10:39:43;;;;;;;0.88;0.88;;;17.60;51.90;;;;;;5088873;28;20024;-69
2024/01/30 10:42:13;;;;;;;0.93;0.90;;;17.70;50.90;;;;;;5090215;28;20028;-68
2024/01/30 10:45:08;;;;;;;0.77;0.77;;;17.80;50.50;;;;;;5091595;28;20036;-67
2024/01/30 10:47:36;;;;;;;0.70;0.70;;;18.00;50.10;;;;;;5092612;28;20081;-68
2024/01/30 10:50:03;;;;;;;0.65;0.65;;;18.10;50.10;;;;;;5091006;28;20112;-68
2024/01/30 10:52:29;;;;;;;0.70;0.70;;;18.30;49.90;;;;;;5092059;28;20034;-68
2024/01/30 10:54:56;;;;;;;0.88;0.88;;;18.50;49.30;;;;;;5089210;28;20024;-68
2024/01/30 10:57:24;;;;;;;1.65;1.40;;;18.70;49.20;;;;;;5092705;28;20028;-68
2024/01/30 10:59:51;;;;;;;0.90;0.90;;;18.90;48.60;;;;;;5084926;28;20055;-68
2024/01/30 11:02:17;;;;;;;0.70;0.70;;;19.10;47.90;;;;;;5071454;28;20403;-66
2024/01/30 11:04:43;;;;;;;0.85;0.85;;;19.30;47.80;;;;;;5052941;28;20036;-66
2024/01/30 11:07:18;;;;;;;0.50;0.50;;;19.50;47.40;;;;;;5087613;28;20047;-66
2024/01/30 11:09:51;;;;;;;0.60;0.60;;;19.70;46.20;;;;;;5092010;28;20421;-68
2024/01/30 11:12:21;;;;;;;0.75;0.75;;;19.90;45.70;;;;;;5081044;28;20406;-68
2024/01/30 11:14:46;;;;;;;0.65;0.65;;;19.90;45.40;;;;;;5071572;28;20012;-68
2024/01/30 11:17:12;;;;;;;0.63;0.63;;;20.10;44.90;;;;;;5072018;28;20379;-68
2024/01/30 11:19:38;;;;;;;2.95;1.55;;;20.10;44.70;;;;;;5091990;28;20035;-68
2024/01/30 11:22:06;;;;;;;0.52;0.52;;;20.20;45.20;;;;;;5090718;28;20039;-68
2024/01/30 11:24:43;;;;;;;1.20;0.90;;;20.40;44.10;;;;;;5091764;28;20028;-68
2024/01/30 11:27:10;;;;;;;0.90;0.90;;;20.40;43.90;;;;;;5090114;28;20464;-68
2024/01/30 11:29:36;;;;;;;0.52;0.52;;;20.30;43.90;;;;;;5090666;28;20472;-68
2024/01/30 11:32:02;;;;;;;0.60;0.60;;;20.30;43.60;;;;;;5065977;28;20028;-68
2024/01/30 11:34:28;;;;;;;0.50;0.50;;;20.20;43.60;;;;;;5072551;28;20017;-68
2024/01/30 11:36:59;;;;;;;0.75;0.75;;;20.10;43.70;;;;;;5082835;28;20016;-68
2024/01/30 11:39:29;;;;;;;3.83;1.25;;;20.00;44.00;;;;;;5090230;28;20024;-66
2024/01/30 11:41:55;;;;;;;1.52;1.42;;;20.00;44.00;;;;;;5083232;28;20024;-66
2024/01/30 11:44:22;;;;;;;0.80;0.80;;;20.00;43.80;;;;;;5091334;28;20043;-66
2024/01/30 11:46:48;;;;;;;1.17;1.13;;;19.90;44.00;;;;;;5086535;28;20032;-66
2024/01/30 11:49:14;;;;;;;0.93;0.85;;;19.90;43.90;;;;;;5071181;28;20020;-66
2024/01/30 11:51:40;;;;;;;0.60;0.60;;;19.90;43.90;;;;;;5071458;28;20044;-67
2024/01/30 11:54:05;;;;;;;0.55;0.55;;;20.00;44.40;;;;;;5070795;28;20036;-66
2024/01/30 11:56:31;;;;;;;0.85;0.82;;;20.10;44.20;;;;;;5071478;28;20044;-66
2024/01/30 11:58:56;;;;;;;1.10;1.10;;;20.10;43.80;;;;;;5071129;28;20052;-67
2024/01/30 12:01:22;;;;;;;0.50;0.50;;;20.00;43.00;;;;;;5086348;28;20028;-67
2024/01/30 12:03:50;;;;;;;0.80;0.80;;;19.90;43.90;;;;;;5071135;28;20442;-66
2024/01/30 12:06:16;;;;;;;0.60;0.60;;;20.00;44.10;;;;;;5079046;28;20032;-66
2024/01/30 12:08:42;;;;;;;1.05;1.05;;;20.00;44.00;;;;;;5091278;28;20196;-67
2024/01/30 12:11:08;;;;;;;0.70;0.70;;;20.00;44.10;;;;;;5081845;28;20028;-66
2024/01/30 12:13:34;;;;;;;1.40;1.15;;;20.00;44.30;;;;;;5085621;28;20070;-66
2024/01/30 12:16:00;;;;;;;0.60;0.60;;;20.00;44.40;;;;;;5085970;28;20522;-66
2024/01/30 12:18:26;;;;;;;0.75;0.75;;;20.00;43.60;;;;;;5070822;28;20027;-66
2024/01/30 12:20:59;;;;;;;4.38;1.35;;;19.90;43.70;;;;;;5088270;28;20034;-66
2024/01/30 12:23:26;;;;;;;1.13;1.02;;;19.80;44.00;;;;;;5091209;28;20547;-66
2024/01/30 12:25:52;;;;;;;0.60;0.60;;;19.70;44.40;;;;;;5084050;28;20425;-66
2024/01/30 12:28:18;;;;;;;0.65;0.65;;;19.80;44.40;;;;;;5090846;28;20028;-66
2024/01/30 12:30:43;;;;;;;0.60;0.60;;;19.60;44.60;;;;;;5085965;28;20085;-67
2024/01/30 12:33:09;;;;;;;1.27;1.17;;;19.60;44.40;;;;;;5087956;28;20410;-66
2024/01/30 12:35:35;;;;;;;0.77;0.77;;;19.50;44.50;;;;;;5094747;28;20087;-66
2024/01/30 12:38:02;;;;;;;0.75;0.75;;;19.40;44.70;;;;;;5086791;28;20032;-66
2024/01/30 12:40:28;;;;;;;1.70;1.48;;;19.30;45.00;;;;;;5079475;28;20102;-66
2024/01/30 12:42:54;;;;;;;0.52;0.52;;;19.30;45.10;;;;;;5091048;28;20028;-66
2024/01/30 12:45:21;;;;;;;0.50;0.50;;;19.30;45.40;;;;;;5090201;28;20044;-67
2024/01/30 12:47:47;;;;;;;0.55;0.55;;;19.30;45.50;;;;;;5094641;28;20081;-66